Time;durP1;ratioP1;P1;durP2;ratioP2;P2;SDS_P1;SDS_P2;PMS_P1;PMS_P2;Temp;Humidity;BMP_temperature;BMP_pressure;BME280_temperature;BME280_humidity;BME280_pressure;Samples;Min_cycle;Max_cycle;Signal;HPM_P1;HPM_P2
2022/09/06 00:00:01;;;;;;;;;;;21.30;98.50;;;;;;4969926;28;20225;-62
2022/09/06 00:02:30;;;;;;;;;;;21.20;98.90;;;;;;4972409;28;20204;-62
2022/09/06 00:04:58;;;;;;;;;;;21.20;98.90;;;;;;4969572;28;20206;-62
2022/09/06 00:07:26;;;;;;;;;;;21.10;98.90;;;;;;4968340;28;20204;-62
2022/09/06 00:09:55;;;;;;;;;;;21.10;99.90;;;;;;4971858;28;20198;-62
2022/09/06 00:12:23;;;;;;;;;;;21.20;99.40;;;;;;4965768;28;20212;-62
2022/09/06 00:14:51;;;;;;;;;;;21.20;99.60;;;;;;4966532;28;20230;-62
2022/09/06 00:17:19;;;;;;;;;;;21.20;99.30;;;;;;4967118;28;20080;-62
2022/09/06 00:19:47;;;;;;;;;;;21.30;99.50;;;;;;4967882;28;20085;-62
2022/09/06 00:22:15;;;;;;;;;;;21.40;99.90;;;;;;4967443;28;20137;-63
2022/09/06 00:24:42;;;;;;;;;;;21.50;99.70;;;;;;4967431;28;20232;-62
2022/09/06 00:27:12;;;;;;;;;;;21.50;99.90;;;;;;4967288;28;20320;-62
2022/09/06 00:29:39;;;;;;;;;;;21.60;99.40;;;;;;4970665;28;20669;-63
2022/09/06 00:32:08;;;;;;;;;;;21.60;99.70;;;;;;4969259;28;20253;-62
2022/09/06 00:34:35;;;;;;;;;;;21.70;99.40;;;;;;4969997;28;20124;-62
2022/09/06 00:37:03;;;;;;;;;;;21.50;99.20;;;;;;4967269;28;25084;-63
2022/09/06 00:39:31;;;;;;;;;;;21.50;99.40;;;;;;4968322;28;20093;-62
2022/09/06 00:41:59;;;;;;;;;;;21.30;99.70;;;;;;4969432;28;20215;-62
2022/09/06 00:44:28;;;;;;;;;;;21.30;99.80;;;;;;4969249;28;20661;-62
2022/09/06 00:46:56;;;;;;;;;;;21.20;99.90;;;;;;4967699;28;20201;-62
2022/09/06 00:49:24;;;;;;;;;;;21.00;99.90;;;;;;4968316;28;20548;-62
2022/09/06 00:51:54;;;;;;;;;;;20.90;99.90;;;;;;4967714;28;20241;-62
2022/09/06 00:54:22;;;;;;;;;;;21.00;99.90;;;;;;4968551;28;20203;-62
2022/09/06 00:56:50;;;;;;;;;;;20.90;99.90;;;;;;4967898;28;20207;-62
2022/09/06 00:59:18;;;;;;;;;;;20.80;99.90;;;;;;4966887;28;20134;-62
2022/09/06 01:01:47;;;;;;;;;;;20.80;99.90;;;;;;4967084;28;20333;-62
2022/09/06 01:04:15;;;;;;;;;;;20.80;99.90;;;;;;4967405;28;20222;-62
2022/09/06 01:06:47;;;;;;;;;;;21.00;99.90;;;;;;4967099;28;20208;-62
2022/09/06 01:09:20;;;;;;;;;;;21.10;99.90;;;;;;4967464;28;20222;-62
2022/09/06 01:11:53;;;;;;;;;;;21.20;99.90;;;;;;4967388;28;20117;-62
2022/09/06 01:14:26;;;;;;;;;;;21.20;99.90;;;;;;4967750;28;20756;-62
2022/09/06 01:16:57;;;;;;;;;;;21.20;99.90;;;;;;4966545;28;25146;-62
2022/09/06 01:19:42;;;;;;;;;;;21.20;99.90;;;;;;4968659;28;20625;-62
2022/09/06 01:22:17;;;;;;;;;;;21.20;99.90;;;;;;4965741;28;20224;-62
2022/09/06 01:25:00;;;;;;;;;;;21.20;99.90;;;;;;4966577;28;20258;-63
2022/09/06 01:27:48;;;;;;;;;;;21.30;99.90;;;;;;4966634;28;20665;-62
2022/09/06 01:30:19;;;;;;;;;;;21.20;99.90;;;;;;4963207;28;20213;-62
2022/09/06 01:32:50;;;;;;;;;;;21.20;99.90;;;;;;4966984;28;20249;-62
2022/09/06 01:35:24;;;;;;;;;;;21.20;99.90;;;;;;4965312;28;20202;-62
2022/09/06 01:37:52;;;;;;;;;;;21.10;99.90;;;;;;4963511;28;20129;-63
2022/09/06 01:40:20;;;;;;;;;;;21.30;99.90;;;;;;4982001;28;20222;-62
2022/09/06 01:42:49;;;;;;;;;;;21.30;99.90;;;;;;4969770;28;20118;-62
2022/09/06 01:45:19;;;;;;;;;;;21.20;99.90;;;;;;4967326;28;21408;-62
2022/09/06 01:47:54;;;;;;;;;;;21.20;99.90;;;;;;4964931;28;20273;-61
2022/09/06 01:50:48;;;;;;;;;;;21.20;99.90;;;;;;4964304;28;20248;-63
2022/09/06 01:53:22;;;;;;;;;;;21.10;99.90;;;;;;4953610;28;20225;-63
2022/09/06 01:55:51;;;;;;;;;;;20.90;99.90;;;;;;4967905;28;20201;-62
2022/09/06 01:58:31;;;;;;;;;;;20.90;99.90;;;;;;4966902;28;20259;-62
2022/09/06 02:01:01;;;;;;;;;;;20.80;99.90;;;;;;4965595;28;20192;-62
2022/09/06 02:03:32;;;;;;;;;;;20.80;99.90;;;;;;4965255;28;20680;-62
2022/09/06 02:06:03;;;;;;;;;;;20.90;99.90;;;;;;4966739;28;20338;-62
2022/09/06 02:08:33;;;;;;;;;;;20.90;99.90;;;;;;4966273;28;20267;-62
2022/09/06 02:11:01;;;;;;;;;;;20.90;99.90;;;;;;4966661;28;20220;-62
2022/09/06 02:13:31;;;;;;;;;;;21.00;99.90;;;;;;4966049;28;20227;-62
2022/09/06 02:16:02;;;;;;;;;;;21.00;99.90;;;;;;4968706;28;20668;-61
2022/09/06 02:18:31;;;;;;;;;;;21.00;99.90;;;;;;4971134;28;20244;-62
2022/09/06 02:21:00;;;;;;;;;;;21.00;99.90;;;;;;4966986;28;20226;-62
2022/09/06 02:23:30;;;;;;;;;;;21.10;99.90;;;;;;4965825;28;20759;-62
2022/09/06 02:25:59;;;;;;;;;;;21.10;99.90;;;;;;4964853;28;20365;-62
2022/09/06 02:28:27;;;;;;;;;;;21.10;99.90;;;;;;4966493;28;20247;-63
2022/09/06 02:30:57;;;;;;;;;;;21.10;99.90;;;;;;4967414;28;20885;-62
2022/09/06 02:33:28;;;;;;;;;;;21.10;99.90;;;;;;4966830;28;25090;-62
2022/09/06 02:35:56;;;;;;;;;;;21.20;99.90;;;;;;4969184;28;20072;-62
2022/09/06 02:38:26;;;;;;;;;;;21.20;99.90;;;;;;4967135;28;20226;-62
2022/09/06 02:40:55;;;;;;;;;;;21.20;99.90;;;;;;4967030;28;20244;-62
2022/09/06 02:43:23;;;;;;;;;;;21.20;99.90;;;;;;4967068;28;20116;-62
2022/09/06 02:45:52;;;;;;;;;;;21.30;99.90;;;;;;4964173;28;22278;-62
2022/09/06 02:48:21;;;;;;;;;;;21.30;99.90;;;;;;4969621;28;20403;-61
2022/09/06 02:50:50;;;;;;;;;;;21.30;99.90;;;;;;4967821;28;20513;-61
2022/09/06 02:53:18;;;;;;;;;;;21.20;99.90;;;;;;4966356;28;20264;-61
2022/09/06 02:55:46;;;;;;;;;;;21.20;99.90;;;;;;4968379;28;20604;-62
2022/09/06 02:58:14;;;;;;;;;;;21.20;99.90;;;;;;4965014;28;20449;-61
2022/09/06 03:00:42;;;;;;;;;;;21.10;99.90;;;;;;4969392;28;20243;-62
2022/09/06 03:03:10;;;;;;;;;;;20.90;99.90;;;;;;4963060;28;20725;-61
2022/09/06 03:05:38;;;;;;;;;;;20.80;99.90;;;;;;4965640;28;20234;-62
2022/09/06 03:08:08;;;;;;;;;;;20.70;99.90;;;;;;4962946;28;20128;-62
2022/09/06 03:10:36;;;;;;;;;;;20.50;99.90;;;;;;4965801;28;20469;-62
2022/09/06 03:13:04;;;;;;;;;;;20.50;99.90;;;;;;4966975;28;25074;-62
2022/09/06 03:15:32;;;;;;;;;;;20.50;99.90;;;;;;4963388;28;20133;-62
2022/09/06 03:17:59;;;;;;;;;;;20.30;99.90;;;;;;4965961;28;20255;-62
2022/09/06 03:20:27;;;;;;;;;;;20.30;99.90;;;;;;4967182;28;20094;-61
2022/09/06 03:22:55;;;;;;;;;;;20.20;99.90;;;;;;4964950;28;20244;-61
2022/09/06 03:25:24;;;;;;;;;;;20.20;99.90;;;;;;4966083;28;20288;-62
2022/09/06 03:27:52;;;;;;;;;;;20.20;99.90;;;;;;4968413;28;20139;-62
2022/09/06 03:30:20;;;;;;;;;;;20.20;99.90;;;;;;4970310;28;20238;-62
2022/09/06 03:32:48;;;;;;;;;;;20.20;99.90;;;;;;4964013;28;20734;-62
2022/09/06 03:35:15;;;;;;;;;;;20.30;99.90;;;;;;4966509;28;25074;-62
2022/09/06 03:37:43;;;;;;;;;;;20.50;99.90;;;;;;4970040;28;20132;-62
2022/09/06 03:40:11;;;;;;;;;;;20.60;99.90;;;;;;4970513;28;20702;-61
2022/09/06 03:42:40;;;;;;;;;;;20.60;99.90;;;;;;4974492;28;20906;-62
2022/09/06 03:45:09;;;;;;;;;;;20.30;99.90;;;;;;4974734;28;20294;-62
2022/09/06 03:47:36;;;;;;;;;;;20.10;99.90;;;;;;4970453;28;20634;-62
2022/09/06 03:50:04;;;;;;;;;;;20.10;99.90;;;;;;4969413;28;25092;-63
2022/09/06 03:52:32;;;;;;;;;;;20.00;99.90;;;;;;4968773;28;20198;-62
2022/09/06 03:55:00;;;;;;;;;;;20.10;99.90;;;;;;4970412;28;20092;-62
2022/09/06 03:57:28;;;;;;;;;;;20.30;99.90;;;;;;4968525;28;25080;-62
2022/09/06 03:59:57;;;;;;;;;;;20.40;99.90;;;;;;4970498;28;20128;-63
2022/09/06 04:02:25;;;;;;;;;;;20.60;99.90;;;;;;4966018;28;20355;-63
2022/09/06 04:04:54;;;;;;;;;;;20.80;99.90;;;;;;4969783;28;20221;-63
2022/09/06 04:07:22;;;;;;;;;;;21.00;99.90;;;;;;4971454;28;20782;-63
2022/09/06 04:09:50;;;;;;;;;;;20.90;99.90;;;;;;4966973;28;21303;-62
2022/09/06 04:12:17;;;;;;;;;;;21.10;99.90;;;;;;4968785;28;20376;-63
2022/09/06 04:14:45;;;;;;;;;;;21.00;99.90;;;;;;4968516;28;20759;-62
2022/09/06 04:17:15;;;;;;;;;;;21.20;99.90;;;;;;4970389;28;20261;-62
2022/09/06 04:19:42;;;;;;;;;;;21.10;99.90;;;;;;5094821;23;20275;-62
2022/09/06 04:22:10;;;;;;;;;;;21.10;99.90;;;;;;5004398;28;20257;-61
2022/09/06 04:24:38;;;;;;;;;;;21.10;99.90;;;;;;5008711;28;20208;-62
2022/09/06 04:27:06;;;;;;;;;;;21.10;99.90;;;;;;5007000;28;20276;-61
2022/09/06 04:29:33;;;;;;;;;;;21.30;99.90;;;;;;5007423;28;20535;-62
2022/09/06 04:32:01;;;;;;;;;;;21.10;99.90;;;;;;5005865;28;20276;-62
2022/09/06 04:34:30;;;;;;;;;;;20.90;99.90;;;;;;5001694;28;20693;-61
2022/09/06 04:36:58;;;;;;;;;;;21.00;99.90;;;;;;4999936;28;20243;-62
2022/09/06 04:39:26;;;;;;;;;;;21.00;99.90;;;;;;4997250;28;20681;-62
2022/09/06 04:41:54;;;;;;;;;;;20.80;99.90;;;;;;4997431;28;25087;-62
2022/09/06 04:44:21;;;;;;;;;;;20.80;99.90;;;;;;4996686;28;20122;-62
2022/09/06 04:46:49;;;;;;;;;;;20.70;99.90;;;;;;4998635;28;20394;-62
2022/09/06 04:49:17;;;;;;;;;;;20.70;99.90;;;;;;4999000;28;20226;-62
2022/09/06 04:51:46;;;;;;;;;;;20.60;99.90;;;;;;4995838;28;20705;-62
2022/09/06 04:54:14;;;;;;;;;;;20.60;99.90;;;;;;4997233;28;20695;-61
2022/09/06 04:56:42;;;;;;;;;;;20.70;99.90;;;;;;4996405;28;20209;-62
2022/09/06 04:59:09;;;;;;;;;;;20.60;99.90;;;;;;4999362;28;20159;-62
2022/09/06 05:01:37;;;;;;;;;;;20.80;99.90;;;;;;4998761;28;20807;-61
2022/09/06 05:04:05;;;;;;;;;;;20.80;99.90;;;;;;4997511;28;20345;-61
2022/09/06 05:06:32;;;;;;;;;;;20.70;99.90;;;;;;4995700;28;20367;-62
2022/09/06 05:09:02;;;;;;;;;;;20.60;99.90;;;;;;4997032;28;20245;-63
2022/09/06 05:11:30;;;;;;;;;;;20.70;99.90;;;;;;4995926;28;21039;-62
2022/09/06 05:13:57;;;;;;;;;;;20.60;99.90;;;;;;4994470;28;21138;-62
2022/09/06 05:16:25;;;;;;;;;;;20.60;99.90;;;;;;4998398;28;20724;-63
2022/09/06 05:18:53;;;;;;;;;;;20.60;99.90;;;;;;4994841;28;25065;-62
2022/09/06 05:21:21;;;;;;;;;;;20.70;99.90;;;;;;4992763;28;20337;-62
2022/09/06 05:23:49;;;;;;;;;;;20.70;99.90;;;;;;4998277;28;20433;-62
2022/09/06 05:26:21;;;;;;;;;;;20.60;99.90;;;;;;4997352;28;20579;-62
2022/09/06 05:28:49;;;;;;;;;;;20.50;99.90;;;;;;4996843;28;20285;-62
2022/09/06 05:31:24;;;;;;;;;;;20.50;99.90;;;;;;4998576;28;20287;-62
2022/09/06 05:33:52;;;;;;;;;;;20.30;99.90;;;;;;4995855;28;20139;-62
2022/09/06 05:36:22;;;;;;;;;;;20.30;99.90;;;;;;4999588;28;25192;-62
2022/09/06 05:38:50;;;;;;;;;;;20.60;99.90;;;;;;4997425;28;20258;-62
2022/09/06 05:41:17;;;;;;;;;;;20.50;99.90;;;;;;4997720;28;20278;-61
2022/09/06 05:43:47;;;;;;;;;;;20.40;99.90;;;;;;4999948;28;20307;-62
2022/09/06 05:46:15;;;;;;;;;;;20.30;99.90;;;;;;4993427;28;25071;-64
2022/09/06 05:48:43;;;;;;;;;;;20.20;99.90;;;;;;4998336;28;20588;-62
2022/09/06 05:51:12;;;;;;;;;;;20.30;99.90;;;;;;4995346;28;20300;-62
2022/09/06 05:53:40;;;;;;;;;;;20.30;99.90;;;;;;4994990;28;25109;-62
2022/09/06 05:56:09;;;;;;;;;;;20.40;99.90;;;;;;4994482;28;20260;-62
2022/09/06 05:58:37;;;;;;;;;;;20.50;99.90;;;;;;4995983;28;20125;-62
2022/09/06 06:01:08;;;;;;;;;;;20.60;99.90;;;;;;4992657;28;25100;-62
2022/09/06 06:03:36;;;;;;;;;;;20.70;99.90;;;;;;4995138;28;20087;-62
2022/09/06 06:06:04;;;;;;;;;;;20.70;99.90;;;;;;4993522;28;20284;-64
2022/09/06 06:08:32;;;;;;;;;;;20.80;99.90;;;;;;4997577;28;20747;-63
2022/09/06 06:11:00;;;;;;;;;;;20.90;99.90;;;;;;4992928;28;20669;-65
2022/09/06 06:13:28;;;;;;;;;;;20.90;99.90;;;;;;4998323;28;25067;-63
2022/09/06 06:15:56;;;;;;;;;;;20.90;99.90;;;;;;4998114;28;21114;-63
2022/09/06 06:18:25;;;;;;;;;;;20.90;99.90;;;;;;5003017;28;20204;-63
2022/09/06 06:21:06;;;;;;;;;;;20.90;99.90;;;;;;5010651;28;20226;-63
2022/09/06 06:23:33;;;;;;;;;;;21.00;99.90;;;;;;5012331;28;20294;-63
2022/09/06 06:26:01;;;;;;;;;;;21.00;99.90;;;;;;5011421;28;20113;-63
2022/09/06 06:28:29;;;;;;;;;;;21.10;99.90;;;;;;5010933;28;25062;-63
2022/09/06 06:30:57;;;;;;;;;;;21.00;99.90;;;;;;5011939;28;20421;-63
2022/09/06 06:33:26;;;;;;;;;;;21.00;99.90;;;;;;5010931;28;20104;-63
2022/09/06 06:35:58;;;;;;;;;;;21.00;99.90;;;;;;5011078;28;20336;-63
2022/09/06 06:38:29;;;;;;;;;;;21.10;99.90;;;;;;5011751;28;20761;-63
2022/09/06 06:40:57;;;;;;;;;;;21.00;99.90;;;;;;5011217;28;20560;-63
2022/09/06 06:43:36;;;;;;;;;;;21.00;99.90;;;;;;5011003;28;20219;-63
2022/09/06 06:46:04;;;;;;;;;;;20.90;99.90;;;;;;5012077;28;20661;-63
2022/09/06 06:48:34;;;;;;;;;;;20.80;99.90;;;;;;5011066;28;20643;-63
2022/09/06 06:51:01;;;;;;;;;;;20.80;99.90;;;;;;5011668;28;20619;-63
2022/09/06 06:53:29;;;;;;;;;;;20.90;99.90;;;;;;5011062;28;20285;-63
2022/09/06 06:55:57;;;;;;;;;;;20.90;99.90;;;;;;5010785;28;20208;-63
2022/09/06 06:58:25;;;;;;;;;;;20.90;99.90;;;;;;5011660;28;20740;-63
2022/09/06 07:00:53;;;;;;;;;;;21.10;99.90;;;;;;5011134;28;20234;-63
2022/09/06 07:03:21;;;;;;;;;;;21.30;99.90;;;;;;5011002;28;20750;-62
2022/09/06 07:05:50;;;;;;;;;;;21.40;99.90;;;;;;5010940;28;20222;-64
2022/09/06 07:08:37;;;;;;;;;;;21.50;99.90;;;;;;5003731;28;20231;-63
2022/09/06 07:11:05;;;;;;;;;;;21.50;99.90;;;;;;5012280;28;20106;-63
2022/09/06 07:13:34;;;;;;;;;;;21.60;99.90;;;;;;5013483;28;20216;-63
2022/09/06 07:16:08;;;;;;;;;;;21.70;99.90;;;;;;5015644;28;20620;-63
2022/09/06 07:18:36;;;;;;;;;;;21.80;99.90;;;;;;5013287;28;20241;-63
2022/09/06 07:21:05;;;;;;;;;;;21.80;99.90;;;;;;5015444;28;20284;-63
2022/09/06 07:23:53;;;;;;;;;;;21.90;99.90;;;;;;5014596;28;20759;-63
2022/09/06 07:26:38;;;;;;;;;;;22.00;99.90;;;;;;4996102;28;20673;-63
2022/09/06 07:29:07;;;;;;;;;;;22.10;99.90;;;;;;5011119;28;20200;-63
2022/09/06 07:31:36;;;;;;;;;;;22.30;99.90;;;;;;5014709;28;20222;-63
2022/09/06 07:34:25;;;;;;;;;;;22.40;99.90;;;;;;5012604;28;20294;-63
2022/09/06 07:36:54;;;;;;;;;;;22.40;99.90;;;;;;5015212;28;20206;-64
2022/09/06 07:39:22;;;;;;;;;;;22.50;99.90;;;;;;5014059;28;20234;-63
2022/09/06 07:41:50;;;;;;;;;;;22.50;99.90;;;;;;5014753;28;20214;-63
2022/09/06 07:44:18;;;;;;;;;;;22.60;99.90;;;;;;5014484;28;20200;-63
2022/09/06 07:46:46;;;;;;;;;;;22.50;99.90;;;;;;5014208;28;20623;-63
2022/09/06 07:49:14;;;;;;;;;;;22.50;99.90;;;;;;5014941;28;20219;-63
2022/09/06 07:51:42;;;;;;;;;;;22.70;99.90;;;;;;5013953;28;20670;-64
2022/09/06 07:54:11;;;;;;;;;;;22.80;99.90;;;;;;5014694;28;20595;-63
2022/09/06 07:56:57;;;;;;;;;;;23.00;99.90;;;;;;4998742;28;20214;-63
2022/09/06 07:59:26;;;;;;;;;;;23.20;99.90;;;;;;5014450;28;20204;-63
2022/09/06 08:01:54;;;;;;;;;;;23.40;99.90;;;;;;5013388;28;20068;-63
2022/09/06 08:04:21;;;;;;;;;;;23.60;99.90;;;;;;5014666;28;20202;-62
2022/09/06 08:06:50;;;;;;;;;;;23.70;99.90;;;;;;5014170;28;20215;-63
2022/09/06 08:09:40;;;;;;;;;;;23.70;99.90;;;;;;5009267;28;20686;-64
2022/09/06 08:12:08;;;;;;;;;;;23.90;99.90;;;;;;5010806;28;20204;-63
2022/09/06 08:14:35;;;;;;;;;;;24.10;99.90;;;;;;5014552;28;20256;-63
2022/09/06 08:17:03;;;;;;;;;;;24.30;99.90;;;;;;5012194;28;20206;-63
2022/09/06 08:19:31;;;;;;;;;;;24.30;99.90;;;;;;5012188;28;20257;-63
2022/09/06 08:21:59;;;;;;;;;;;24.40;99.90;;;;;;5013881;28;20201;-63
2022/09/06 08:24:27;;;;;;;;;;;24.70;99.90;;;;;;5013878;28;20707;-63
2022/09/06 08:26:56;;;;;;;;;;;24.80;99.90;;;;;;5014420;28;20273;-63
2022/09/06 08:29:24;;;;;;;;;;;24.80;99.90;;;;;;5013401;28;20216;-63
2022/09/06 08:31:52;;;;;;;;;;;24.70;99.90;;;;;;5013513;28;20207;-63
2022/09/06 08:34:20;;;;;;;;;;;24.60;99.90;;;;;;5012756;28;20206;-63
2022/09/06 08:36:48;;;;;;;;;;;24.50;99.90;;;;;;5013443;28;20209;-63
2022/09/06 08:39:16;;;;;;;;;;;24.70;99.90;;;;;;5014043;28;20575;-63
2022/09/06 08:41:47;;;;;;;;;;;24.80;99.90;;;;;;5013148;28;20205;-63
2022/09/06 08:44:18;;;;;;;;;;;25.00;99.90;;;;;;5012865;28;20199;-63
2022/09/06 08:47:07;;;;;;;;;;;25.20;99.90;;;;;;5013966;28;20204;-65
2022/09/06 08:49:36;;;;;;;;;;;25.40;99.90;;;;;;5012937;28;20195;-65
2022/09/06 08:52:12;;;;;;;;;;;25.60;99.90;;;;;;5013905;28;20203;-65
2022/09/06 08:54:40;;;;;;;;;;;25.80;99.90;;;;;;5013090;28;20191;-65
2022/09/06 08:57:10;;;;;;;;;;;25.90;99.90;;;;;;5013948;28;20214;-65
2022/09/06 08:59:41;;;;;;;;;;;26.00;99.90;;;;;;5011191;28;20209;-65
2022/09/06 09:02:11;;;;;;;;;;;26.00;99.90;;;;;;5013713;28;20306;-65
2022/09/06 09:04:41;;;;;;;;;;;26.30;99.90;;;;;;5012749;28;20191;-63
2022/09/06 09:07:14;;;;;;;;;;;26.60;99.90;;;;;;5013681;28;20220;-63
2022/09/06 09:09:42;;;;;;;;;;;26.70;99.90;;;;;;5011249;28;20188;-63
2022/09/06 09:12:11;;;;;;;;;;;26.90;99.90;;;;;;5013476;28;20195;-63
2022/09/06 09:14:42;;;;;;;;;;;27.20;99.90;;;;;;5012503;28;20204;-63
2022/09/06 09:17:12;;;;;;;;;;;27.40;99.90;;;;;;5013115;28;20203;-63
2022/09/06 09:19:41;;;;;;;;;;;27.60;99.90;;;;;;5012236;28;20704;-63
2022/09/06 09:22:09;;;;;;;;;;;27.70;99.90;;;;;;5012311;28;20199;-63
2022/09/06 09:24:38;;;;;;;;;;;27.90;99.90;;;;;;5003984;28;20208;-63
2022/09/06 09:27:09;;;;;;;;;;;28.20;99.90;;;;;;5012247;28;20210;-64
2022/09/06 09:29:56;;;;;;;;;;;28.20;99.90;;;;;;5013116;28;20195;-63
2022/09/06 09:32:44;;;;;;;;;;;28.20;99.90;;;;;;5011595;28;20195;-63
2022/09/06 09:35:17;;;;;;;;;;;28.40;99.90;;;;;;5012960;28;20191;-63
2022/09/06 09:37:46;;;;;;;;;;;28.50;99.90;;;;;;5011761;28;20710;-63
2022/09/06 09:40:18;;;;;;;;;;;28.60;99.90;;;;;;5012913;28;20203;-64
2022/09/06 09:42:46;;;;;;;;;;;28.70;99.90;;;;;;5012090;28;20609;-63
2022/09/06 09:45:26;;;;;;;;;;;28.70;99.90;;;;;;5012980;28;20199;-63
2022/09/06 09:47:55;;;;;;;;;;;28.90;99.90;;;;;;5012250;28;20191;-63
2022/09/06 09:50:24;;;;;;;;;;;29.10;99.90;;;;;;5012738;28;20214;-63
2022/09/06 09:52:52;;;;;;;;;;;29.10;99.90;;;;;;5011161;28;20195;-63
2022/09/06 09:55:22;;;;;;;;;;;29.00;99.90;;;;;;5012702;28;20191;-64
2022/09/06 09:57:52;;;;;;;;;;;29.10;99.90;;;;;;5012317;28;20199;-63
2022/09/06 10:00:35;;;;;;;;;;;29.10;99.90;;;;;;5012404;28;20234;-63
2022/09/06 10:03:11;;;;;;;;;;;29.10;99.90;;;;;;5011792;28;20690;-63
2022/09/06 10:05:39;;;;;;;;;;;29.30;99.90;;;;;;5004875;28;20194;-63
2022/09/06 10:08:10;;;;;;;;;;;29.20;99.90;;;;;;5010317;28;20253;-64
2022/09/06 10:10:40;;;;;;;;;;;29.10;99.80;;;;;;5004428;28;20202;-63
2022/09/06 10:13:08;;;;;;;;;;;28.70;99.90;;;;;;5010890;28;20509;-64
2022/09/06 10:15:38;;;;;;;;;;;28.80;99.90;;;;;;5012380;28;20068;-64
2022/09/06 10:18:06;;;;;;;;;;;29.30;99.90;;;;;;5015780;23;20234;-63
2022/09/06 10:20:40;;;;;;;;;;;29.80;99.30;;;;;;4990226;28;20251;-64
2022/09/06 10:23:12;;;;;;;;;;;29.80;98.70;;;;;;4992423;28;20200;-63
2022/09/06 10:25:43;;;;;;;;;;;29.80;98.80;;;;;;4985296;28;20242;-63
2022/09/06 10:28:31;;;;;;;;;;;29.90;99.20;;;;;;4991824;28;20692;-64
2022/09/06 10:31:07;;;;;;;;;;;29.90;98.60;;;;;;4990963;28;20214;-63
2022/09/06 10:33:40;;;;;;;;;;;30.00;99.20;;;;;;4991617;28;20681;-63
2022/09/06 10:36:08;;;;;;;;;;;30.30;98.40;;;;;;4991752;28;20567;-64
2022/09/06 10:38:39;;;;;;;;;;;30.70;97.80;;;;;;4984426;28;20195;-64
2022/09/06 10:41:17;;;;;;;;;;;30.90;97.50;;;;;;4991537;28;20202;-64
2022/09/06 10:43:48;;;;;;;;;;;31.00;97.30;;;;;;4985544;28;20202;-63
2022/09/06 10:46:20;;;;;;;;;;;31.30;96.80;;;;;;4991257;28;20196;-64
2022/09/06 10:48:48;;;;;;;;;;;31.40;96.70;;;;;;4992498;28;20673;-64
2022/09/06 10:51:21;;;;;;;;;;;31.30;96.20;;;;;;4973258;28;20219;-63
2022/09/06 10:53:53;;;;;;;;;;;31.50;95.70;;;;;;4973199;28;20246;-64
2022/09/06 10:56:24;;;;;;;;;;;31.50;95.70;;;;;;4990519;28;20242;-64
2022/09/06 10:58:54;;;;;;;;;;;31.70;95.60;;;;;;4992398;28;20204;-63
2022/09/06 11:01:46;;;;;;;;;;;31.90;95.40;;;;;;4991856;28;20223;-63
2022/09/06 11:04:19;;;;;;;;;;;31.90;95.50;;;;;;4991931;28;20219;-66
2022/09/06 11:06:50;;;;;;;;;;;32.10;94.70;;;;;;4992160;28;20196;-64
2022/09/06 11:09:23;;;;;;;;;;;32.30;94.30;;;;;;4990469;28;20195;-64
2022/09/06 11:11:54;;;;;;;;;;;32.40;94.20;;;;;;4986078;28;20196;-64
2022/09/06 11:14:23;;;;;;;;;;;32.60;94.00;;;;;;4991290;28;20676;-64
2022/09/06 11:16:54;;;;;;;;;;;32.30;93.90;;;;;;4991090;28;20192;-64
2022/09/06 11:19:23;;;;;;;;;;;31.90;94.20;;;;;;4990840;28;20215;-64
2022/09/06 11:22:10;;;;;;;;;;;31.80;94.20;;;;;;4991070;28;20645;-64
2022/09/06 11:24:45;;;;;;;;;;;32.10;94.30;;;;;;4992052;28;20203;-64
2022/09/06 11:27:16;;;;;;;;;;;32.30;93.70;;;;;;4991425;28;20196;-64
2022/09/06 11:29:45;;;;;;;;;;;32.60;93.20;;;;;;4991946;28;20195;-64
2022/09/06 11:32:31;;;;;;;;;;;33.00;92.90;;;;;;4991396;28;20574;-64
2022/09/06 11:35:01;;;;;;;;;;;33.20;92.50;;;;;;4991926;28;20187;-64
2022/09/06 11:37:31;;;;;;;;;;;33.30;92.20;;;;;;4991629;28;20207;-64
2022/09/06 11:40:05;;;;;;;;;;;33.20;92.70;;;;;;4991801;28;20191;-64
2022/09/06 11:43:08;;;;;;;;;;;33.30;91.70;;;;;;4985029;28;20179;-64
2022/09/06 11:45:40;;;;;;;;;;;33.50;91.70;;;;;;4983578;28;20195;-64
2022/09/06 11:48:22;;;;;;;;;;;33.50;91.60;;;;;;4992198;28;20582;-64
2022/09/06 11:51:01;;;;;;;;;;;33.70;91.30;;;;;;4990001;28;20199;-66
2022/09/06 11:53:30;;;;;;;;;;;34.00;90.80;;;;;;4992076;28;20175;-64
2022/09/06 11:56:16;;;;;;;;;;;34.30;90.20;;;;;;4991018;28;20233;-63
2022/09/06 11:58:50;;;;;;;;;;;34.20;90.20;;;;;;4989821;28;20200;-63
2022/09/06 12:01:35;;;;;;;;;;;34.20;90.20;;;;;;4995059;28;20180;-63
2022/09/06 12:04:05;;;;;;;;;;;34.50;90.10;;;;;;4993527;28;20181;-63
2022/09/06 12:06:37;;;;;;;;;;;34.30;88.50;;;;;;4995177;28;20193;-63
2022/09/06 12:09:20;;;;;;;;;;;33.90;88.80;;;;;;4994366;28;20214;-63
2022/09/06 12:11:48;;;;;;;;;;;33.70;89.20;;;;;;4986880;28;20193;-63
2022/09/06 12:14:27;;;;;;;;;;;34.20;89.30;;;;;;4994798;28;20188;-63
2022/09/06 12:17:26;;;;;;;;;;;34.60;88.60;;;;;;4991880;28;20209;-63
2022/09/06 12:20:04;;;;;;;;;;;35.10;87.70;;;;;;4987822;28;20506;-63
2022/09/06 12:22:53;;;;;;;;;;;34.40;86.70;;;;;;4993918;28;20185;-63
2022/09/06 12:25:39;;;;;;;;;;;34.30;85.00;;;;;;4994647;28;20648;-63
2022/09/06 12:28:11;;;;;;;;;;;34.70;85.00;;;;;;4992809;28;20229;-64
2022/09/06 12:30:40;;;;;;;;;;;35.20;83.80;;;;;;4986918;28;20168;-65
2022/09/06 12:33:13;;;;;;;;;;;35.60;83.60;;;;;;4993975;28;20192;-66
2022/09/06 12:35:41;;;;;;;;;;;35.80;83.10;;;;;;4986962;28;20182;-66
2022/09/06 12:38:27;;;;;;;;;;;36.20;82.30;;;;;;4993609;28;20659;-66
2022/09/06 12:40:57;;;;;;;;;;;36.50;80.60;;;;;;4994362;28;20192;-66
2022/09/06 12:43:25;;;;;;;;;;;36.30;79.40;;;;;;4993464;28;20177;-65
2022/09/06 12:45:53;;;;;;;;;;;36.30;80.00;;;;;;4994374;28;20586;-66
2022/09/06 12:48:28;;;;;;;;;;;36.40;80.20;;;;;;4990306;28;20240;-65
2022/09/06 12:51:02;;;;;;;;;;;36.30;79.50;;;;;;4994349;28;20177;-66
2022/09/06 12:53:33;;;;;;;;;;;36.30;78.80;;;;;;4993589;28;20195;-65
2022/09/06 12:56:02;;;;;;;;;;;35.50;79.30;;;;;;4992598;28;20213;-66
2022/09/06 12:58:30;;;;;;;;;;;35.20;79.80;;;;;;4994087;28;20200;-65
2022/09/06 13:01:02;;;;;;;;;;;35.20;79.50;;;;;;4993064;28;20178;-65
2022/09/06 13:03:33;;;;;;;;;;;35.20;80.10;;;;;;4994462;28;20197;-65
2022/09/06 13:06:04;;;;;;;;;;;35.30;79.30;;;;;;4993393;28;20185;-65
2022/09/06 13:08:34;;;;;;;;;;;35.50;78.70;;;;;;4993366;28;20210;-65
2022/09/06 13:11:03;;;;;;;;;;;35.70;78.40;;;;;;4992675;28;20243;-65
2022/09/06 13:13:31;;;;;;;;;;;35.80;77.80;;;;;;4994473;28;20179;-65
2022/09/06 13:15:59;;;;;;;;;;;35.80;77.80;;;;;;4993664;28;20180;-65
2022/09/06 13:18:31;;;;;;;;;;;36.20;78.70;;;;;;4994177;28;20280;-65
2022/09/06 13:21:00;;;;;;;;;;;36.60;77.90;;;;;;4993973;28;20188;-66
2022/09/06 13:23:27;;;;;;;;;;;36.70;77.00;;;;;;4994636;28;20200;-65
2022/09/06 13:25:57;;;;;;;;;;;36.60;75.70;;;;;;4993130;28;20178;-65
2022/09/06 13:28:26;;;;;;;;;;;37.10;76.30;;;;;;4994413;28;20200;-65
2022/09/06 13:31:05;;;;;;;;;;;37.40;75.90;;;;;;4993132;28;20176;-65
2022/09/06 13:33:32;;;;;;;;;;;37.60;75.30;;;;;;4993638;28;20644;-65
2022/09/06 13:36:21;;;;;;;;;;;38.00;74.70;;;;;;4992239;28;20211;-65
2022/09/06 13:38:49;;;;;;;;;;;37.50;74.20;;;;;;4978047;28;20268;-66
2022/09/06 13:41:41;;;;;;;;;;;36.90;75.00;;;;;;4993228;28;20685;-66
2022/09/06 13:44:27;;;;;;;;;;;36.70;74.30;;;;;;4983381;28;20209;-66
2022/09/06 13:46:55;;;;;;;;;;;36.80;74.00;;;;;;4992518;28;20180;-65
2022/09/06 13:49:23;;;;;;;;;;;36.60;74.70;;;;;;4993177;28;20213;-65
2022/09/06 13:51:52;;;;;;;;;;;36.70;74.70;;;;;;4991486;28;20183;-65
2022/09/06 13:54:21;;;;;;;;;;;36.80;74.70;;;;;;4992032;28;20776;-65
2022/09/06 13:56:49;;;;;;;;;;;36.10;75.20;;;;;;4993102;28;20197;-65
2022/09/06 13:59:17;;;;;;;;;;;36.00;75.70;;;;;;4979866;28;20269;-66
2022/09/06 14:01:47;;;;;;;;;;;35.80;75.40;;;;;;4973659;28;20232;-65
2022/09/06 14:04:18;;;;;;;;;;;35.70;75.60;;;;;;4986039;28;20198;-65
2022/09/06 14:06:46;;;;;;;;;;;36.10;75.90;;;;;;4992133;28;20547;-65
2022/09/06 14:09:14;;;;;;;;;;;36.00;75.30;;;;;;4991742;28;21350;-65
2022/09/06 14:11:42;;;;;;;;;;;36.40;74.80;;;;;;4992770;28;20233;-65
2022/09/06 14:14:16;;;;;;;;;;;36.70;74.50;;;;;;4992333;28;20200;-65
2022/09/06 14:16:44;;;;;;;;;;;37.00;73.60;;;;;;4992389;28;20193;-65
2022/09/06 14:19:13;;;;;;;;;;;37.00;73.80;;;;;;4991196;28;20248;-65
2022/09/06 14:21:40;;;;;;;;;;;37.40;73.70;;;;;;4992115;28;20608;-65
2022/09/06 14:24:09;;;;;;;;;;;36.90;73.10;;;;;;4992922;28;20563;-65
2022/09/06 14:26:37;;;;;;;;;;;36.70;72.90;;;;;;4991907;28;20605;-65
2022/09/06 14:29:05;;;;;;;;;;;36.50;73.80;;;;;;4992662;28;20217;-66
2022/09/06 14:31:33;;;;;;;;;;;36.00;74.40;;;;;;4991544;28;20184;-65
2022/09/06 14:34:01;;;;;;;;;;;34.80;76.00;;;;;;4991653;28;20192;-65
2022/09/06 14:36:31;;;;;;;;;;;34.30;76.70;;;;;;4992455;28;20604;-65